createdAt,value
2023-04-27T00:00:38.396Z,63.79
2023-04-27T00:03:18.094Z,64.21
2023-04-27T00:05:46.741Z,64.37
2023-04-27T00:08:15.307Z,64.76
2023-04-27T00:10:43.477Z,65.22
2023-04-27T00:13:11.589Z,65.38
2023-04-27T00:15:39.824Z,66.02
2023-04-27T00:18:08.049Z,66.30
2023-04-27T00:20:36.266Z,66.60
2023-04-27T00:23:04.348Z,67.21
2023-04-27T00:25:32.716Z,67.57
2023-04-27T00:28:00.912Z,68.07
2023-04-27T00:30:29.176Z,68.20
2023-04-27T00:32:57.493Z,68.21
2023-04-27T00:35:25.719Z,68.41
2023-04-27T00:37:55.185Z,68.43
2023-04-27T00:40:23.287Z,68.75
2023-04-27T00:42:51.459Z,69.12
2023-04-27T00:45:19.634Z,69.24
2023-04-27T00:47:47.850Z,69.70
2023-04-27T00:50:17.208Z,69.46
2023-04-27T00:52:45.793Z,69.73
2023-04-27T00:55:13.955Z,70.09
2023-04-27T00:57:42.131Z,70.25
2023-04-27T01:00:13.681Z,70.50
2023-04-27T01:02:42.384Z,70.64
2023-04-27T01:05:10.948Z,70.60
2023-04-27T01:07:40.968Z,71.26
2023-04-27T01:10:09.558Z,71.39
2023-04-27T01:12:37.722Z,71.59
2023-04-27T01:15:07.405Z,71.53
2023-04-27T01:17:36.084Z,71.68
2023-04-27T01:20:09.113Z,72.00
2023-04-27T01:22:38.292Z,72.12
2023-04-27T01:25:08.189Z,72.39
2023-04-27T01:27:36.378Z,72.63
2023-04-27T01:30:06.577Z,72.93
2023-04-27T01:32:38.061Z,72.74
2023-04-27T01:35:07.428Z,73.10
2023-04-27T01:37:36.038Z,72.85
2023-04-27T01:40:06.806Z,73.18
2023-04-27T01:42:35.140Z,73.22
2023-04-27T01:45:04.340Z,73.44
2023-04-27T01:47:33.269Z,73.44
2023-04-27T01:50:01.807Z,73.47
2023-04-27T01:52:30.289Z,73.42
2023-04-27T01:54:58.460Z,73.43
2023-04-27T01:57:27.245Z,73.46
2023-04-27T01:59:57.175Z,73.47
2023-04-27T02:02:25.603Z,73.80
2023-04-27T02:04:54.298Z,73.86
2023-04-27T02:07:22.704Z,73.72
2023-04-27T02:09:51.085Z,73.69
2023-04-27T02:12:19.254Z,74.17
2023-04-27T02:14:47.423Z,73.89
2023-04-27T02:17:15.798Z,74.01
2023-04-27T02:19:43.974Z,73.81
2023-04-27T02:22:12.552Z,73.99
2023-04-27T02:24:40.831Z,74.04
2023-04-27T02:27:09.105Z,74.02
2023-04-27T02:29:39.621Z,74.40
2023-04-27T02:32:08.318Z,74.77
2023-04-27T02:34:36.688Z,74.93
2023-04-27T02:37:05.203Z,74.90
2023-04-27T02:39:33.344Z,75.15
2023-04-27T02:42:03.161Z,75.29
2023-04-27T02:44:31.339Z,75.20
2023-04-27T02:46:59.580Z,75.32
2023-04-27T02:49:27.878Z,75.37
2023-04-27T02:51:57.071Z,75.37
2023-04-27T02:54:25.757Z,75.38
2023-04-27T02:56:53.921Z,75.52
2023-04-27T02:59:22.094Z,75.60
2023-04-27T03:01:50.265Z,76.02
2023-04-27T03:04:18.825Z,75.70
2023-04-27T03:06:47.327Z,75.78
2023-04-27T03:09:17.294Z,75.96
2023-04-27T03:11:45.616Z,76.17
2023-04-27T03:14:14.012Z,75.99
2023-04-27T03:16:42.194Z,76.15
2023-04-27T03:19:10.989Z,76.27
2023-04-27T03:21:39.633Z,76.19
2023-04-27T03:24:07.810Z,76.25
2023-04-27T03:26:36.188Z,76.41
2023-04-27T03:29:05.490Z,76.40
2023-04-27T03:31:33.698Z,76.64
2023-04-27T03:34:01.833Z,76.70
2023-04-27T03:36:30.108Z,76.82
2023-04-27T03:38:58.173Z,76.92
2023-04-27T03:41:26.660Z,76.86
2023-04-27T03:43:54.826Z,76.82
2023-04-27T03:46:23.020Z,76.92
2023-04-27T03:48:51.173Z,76.88
2023-04-27T03:51:19.456Z,77.10
2023-04-27T03:53:48.130Z,76.98
2023-04-27T03:56:16.509Z,77.22
2023-04-27T03:58:44.690Z,77.26
2023-04-27T04:01:22.096Z,77.58
2023-04-27T04:03:52.003Z,77.51
2023-04-27T04:06:20.931Z,77.61
2023-04-27T04:08:49.142Z,77.56
2023-04-27T04:11:17.824Z,77.80
2023-04-27T04:13:46.309Z,77.69
2023-04-27T04:16:14.712Z,77.53
2023-04-27T04:18:43.165Z,77.62
2023-04-27T04:21:12.154Z,77.58
2023-04-27T04:23:42.890Z,77.89
2023-04-27T04:26:11.574Z,77.92
2023-04-27T04:28:39.951Z,78.12
2023-04-27T04:31:09.963Z,77.63
2023-04-27T04:33:38.167Z,77.92
2023-04-27T04:36:07.055Z,77.79
2023-04-27T04:38:35.714Z,77.93
2023-04-27T04:41:04.102Z,77.99
2023-04-27T04:43:34.560Z,78.01
2023-04-27T04:46:06.609Z,78.04
2023-04-27T04:48:35.774Z,77.99
2023-04-27T04:51:07.354Z,77.88
2023-04-27T04:53:35.905Z,78.01
2023-04-27T04:56:11.636Z,78.18
2023-04-27T04:58:40.357Z,77.80
2023-04-27T05:01:08.685Z,77.96
2023-04-27T05:03:37.131Z,77.93
2023-04-27T05:06:06.082Z,77.67
2023-04-27T05:08:34.365Z,77.58
2023-04-27T05:11:02.538Z,77.57
2023-04-27T05:13:31.227Z,77.79
2023-04-27T05:15:59.418Z,77.63
2023-04-27T05:18:27.661Z,77.78
2023-04-27T05:20:56.356Z,77.46
2023-04-27T05:23:24.516Z,77.59
2023-04-27T05:25:53.000Z,77.41
2023-04-27T05:28:21.382Z,77.38
2023-04-27T05:30:49.548Z,77.29
2023-04-27T05:33:17.617Z,77.34
2023-04-27T05:35:45.796Z,77.08
2023-04-27T05:38:17.648Z,76.85
2023-04-27T05:40:45.824Z,76.43
2023-04-27T05:43:13.997Z,76.38
2023-04-27T05:45:42.347Z,76.16
2023-04-27T05:48:10.549Z,75.85
2023-04-27T05:50:38.616Z,75.72
2023-04-27T05:53:07.298Z,75.12
2023-04-27T05:55:35.891Z,74.74
2023-04-27T05:58:07.707Z,74.15
2023-04-27T06:00:37.027Z,73.84
2023-04-27T06:03:05.279Z,73.67
2023-04-27T06:05:34.688Z,73.03
2023-04-27T06:08:03.398Z,72.65
2023-04-27T06:10:31.587Z,72.66
2023-04-27T06:13:00.262Z,72.48
2023-04-27T06:15:28.448Z,72.14
2023-04-27T06:17:56.993Z,71.77
2023-04-27T06:20:25.184Z,71.61
2023-04-27T06:22:53.358Z,71.22
2023-04-27T06:25:21.849Z,71.10
2023-04-27T06:27:51.236Z,71.06
2023-04-27T06:30:19.410Z,71.20
2023-04-27T06:32:47.608Z,70.90
2023-04-27T06:35:16.478Z,70.52
2023-04-27T06:37:45.233Z,70.41
2023-04-27T06:40:13.602Z,70.42
2023-04-27T06:42:41.812Z,70.04
2023-04-27T06:45:10.854Z,70.20
2023-04-27T06:47:39.121Z,69.94
2023-04-27T06:50:07.854Z,69.51
2023-04-27T06:52:36.027Z,69.29
2023-04-27T06:55:04.620Z,69.16
2023-04-27T06:57:32.684Z,69.10
2023-04-27T07:00:01.092Z,68.98
2023-04-27T07:02:29.351Z,68.16
2023-04-27T07:04:57.872Z,68.01
2023-04-27T07:07:25.982Z,67.90
2023-04-27T07:09:54.154Z,67.54
2023-04-27T07:12:22.328Z,67.10
2023-04-27T07:14:51.221Z,66.69
2023-04-27T07:17:19.402Z,66.28
2023-04-27T07:19:47.662Z,66.51
2023-04-27T07:22:16.355Z,65.88
2023-04-27T07:24:44.827Z,65.61
2023-04-27T07:27:13.819Z,65.69
2023-04-27T07:29:42.613Z,65.21
2023-04-27T07:32:10.845Z,65.42
2023-04-27T07:34:51.971Z,65.25
2023-04-27T07:37:22.508Z,65.16
2023-04-27T07:39:54.658Z,64.72
2023-04-27T07:42:22.717Z,64.54
2023-04-27T07:44:52.218Z,63.99
2023-04-27T07:47:20.491Z,63.91
2023-04-27T07:49:48.689Z,63.79
2023-04-27T07:52:16.837Z,63.73
2023-04-27T07:54:44.912Z,63.83
2023-04-27T07:57:12.975Z,63.69
2023-04-27T07:59:41.147Z,63.68
2023-04-27T08:02:19.241Z,63.55
2023-04-27T08:04:50.301Z,63.32
2023-04-27T08:07:19.632Z,63.07
2023-04-27T08:09:52.381Z,62.69
2023-04-27T08:12:20.545Z,62.29
2023-04-27T08:14:48.715Z,62.12
2023-04-27T08:17:18.558Z,62.15
2023-04-27T08:19:46.716Z,62.68
2023-04-27T08:22:15.079Z,62.28
2023-04-27T08:24:43.249Z,62.21
2023-04-27T08:27:11.467Z,62.24
2023-04-27T08:29:39.599Z,61.94
2023-04-27T08:32:08.478Z,62.18
2023-04-27T08:34:36.623Z,62.06
2023-04-27T08:37:04.939Z,61.67
2023-04-27T08:39:33.207Z,61.67
2023-04-27T08:42:01.391Z,61.22
2023-04-27T08:44:29.863Z,61.02
2023-04-27T08:46:58.036Z,60.73
2023-04-27T08:49:26.419Z,60.95
2023-04-27T08:51:54.581Z,61.09
2023-04-27T08:54:22.752Z,60.24
2023-04-27T08:56:50.966Z,60.02
2023-04-27T08:59:19.195Z,59.88
2023-04-27T09:01:49.291Z,59.32
2023-04-27T09:04:18.763Z,59.24
2023-04-27T09:06:47.099Z,58.92
2023-04-27T09:09:25.541Z,58.35
2023-04-27T09:11:53.793Z,57.57
2023-04-27T09:14:24.018Z,57.47
2023-04-27T09:16:58.091Z,57.39
2023-04-27T09:19:28.738Z,57.52
2023-04-27T09:22:08.073Z,57.56
2023-04-27T09:24:36.455Z,57.63
2023-04-27T09:27:05.359Z,57.52
2023-04-27T09:29:37.837Z,57.65
2023-04-27T09:32:20.936Z,57.67
2023-04-27T09:34:49.321Z,57.40
2023-04-27T09:37:17.591Z,57.19
2023-04-27T09:39:46.278Z,56.55
2023-04-27T09:42:16.088Z,56.15
2023-04-27T09:44:44.265Z,56.52
2023-04-27T09:47:13.877Z,56.56
2023-04-27T09:49:42.138Z,56.20
2023-04-27T09:52:10.630Z,55.87
2023-04-27T09:54:39.201Z,55.87
2023-04-27T09:57:21.813Z,55.68
2023-04-27T10:00:20.711Z,55.37
2023-04-27T10:03:04.410Z,55.26
2023-04-27T10:05:43.366Z,55.42
2023-04-27T10:08:11.842Z,55.05
2023-04-27T10:10:48.315Z,54.90
2023-04-27T10:13:24.690Z,54.68
2023-04-27T10:15:53.880Z,53.38
2023-04-27T10:18:27.784Z,53.19
2023-04-27T10:20:56.154Z,52.86
2023-04-27T10:23:25.773Z,52.53
2023-04-27T10:25:54.869Z,52.16
2023-04-27T10:28:22.930Z,52.15
2023-04-27T10:30:51.226Z,51.94
2023-04-27T10:33:22.018Z,51.98
2023-04-27T10:36:00.626Z,52.06
2023-04-27T10:38:32.923Z,52.27
2023-04-27T10:41:07.153Z,52.54
2023-04-27T10:43:35.834Z,53.25
2023-04-27T10:46:22.138Z,53.43
2023-04-27T10:48:50.391Z,53.72
2023-04-27T10:51:18.581Z,54.21
2023-04-27T10:53:52.676Z,54.90
2023-04-27T10:56:20.954Z,55.51
2023-04-27T10:58:49.732Z,55.66
2023-04-27T11:01:27.867Z,55.85
2023-04-27T11:03:57.988Z,55.95
2023-04-27T11:06:28.614Z,55.86
2023-04-27T11:08:57.372Z,55.96
2023-04-27T11:11:26.527Z,55.91
2023-04-27T11:13:56.000Z,55.52
2023-04-27T11:16:24.642Z,54.87
2023-04-27T11:18:52.807Z,54.79
2023-04-27T11:21:22.516Z,54.71
2023-04-27T11:23:50.606Z,54.72
2023-04-27T11:26:21.785Z,53.78
2023-04-27T11:28:59.965Z,53.23
2023-04-27T11:31:38.401Z,52.37
2023-04-27T11:34:08.162Z,51.62
2023-04-27T11:36:36.756Z,50.99
2023-04-27T11:39:06.776Z,50.59
2023-04-27T11:41:39.320Z,50.11
2023-04-27T11:44:09.029Z,49.97
2023-04-27T11:46:38.189Z,49.99
2023-04-27T11:49:10.838Z,49.55
2023-04-27T11:51:40.329Z,49.21
2023-04-27T11:54:08.528Z,48.59
2023-04-27T11:56:41.798Z,48.40
2023-04-27T11:59:27.894Z,48.72
2023-04-27T12:01:56.187Z,48.63
2023-04-27T12:04:24.336Z,48.75
2023-04-27T12:06:52.814Z,48.44
2023-04-27T12:09:21.091Z,47.91
2023-04-27T12:11:49.263Z,47.43
2023-04-27T12:14:19.586Z,47.17
2023-04-27T12:16:47.678Z,47.09
2023-04-27T12:19:15.828Z,46.97
2023-04-27T12:21:43.898Z,46.73
2023-04-27T12:24:12.599Z,46.12
2023-04-27T12:26:41.166Z,46.40
2023-04-27T12:29:09.426Z,46.72
2023-04-27T12:31:37.817Z,46.90
2023-04-27T12:34:06.216Z,47.64
2023-04-27T12:36:34.363Z,47.83
2023-04-27T12:39:17.175Z,47.88
2023-04-27T12:41:46.479Z,47.86
2023-04-27T12:44:15.447Z,47.20
2023-04-27T12:46:44.865Z,47.16
2023-04-27T12:49:13.049Z,46.69
2023-04-27T12:51:41.940Z,46.75
2023-04-27T12:54:11.377Z,46.86
2023-04-27T12:56:39.917Z,46.46
2023-04-27T12:59:08.868Z,46.00
2023-04-27T13:01:37.557Z,45.22
2023-04-27T13:04:07.428Z,44.74
2023-04-27T13:06:35.779Z,44.72
2023-04-27T13:09:04.165Z,44.91
2023-04-27T13:11:32.526Z,44.42
2023-04-27T13:14:02.163Z,44.31
2023-04-27T13:16:30.370Z,44.13
2023-04-27T13:18:58.585Z,44.24
2023-04-27T13:21:27.266Z,43.09
2023-04-27T13:23:59.543Z,42.50
2023-04-27T13:26:28.320Z,42.39
2023-04-27T13:28:57.422Z,42.27
2023-04-27T13:31:25.692Z,42.10
2023-04-27T13:33:53.960Z,42.02
2023-04-27T13:36:22.574Z,42.92
2023-04-27T13:38:51.131Z,43.59
2023-04-27T13:41:19.405Z,44.22
2023-04-27T13:43:47.485Z,44.73
2023-04-27T13:46:15.673Z,44.98
2023-04-27T13:48:43.816Z,45.32
2023-04-27T13:51:11.985Z,45.80
2023-04-27T13:53:40.379Z,45.74
2023-04-27T13:56:08.671Z,45.63
2023-04-27T13:58:37.326Z,45.85
2023-04-27T14:01:05.644Z,45.86
2023-04-27T14:03:34.330Z,46.25
2023-04-27T14:06:02.770Z,46.34
2023-04-27T14:08:31.854Z,46.53
2023-04-27T14:11:00.140Z,46.29
2023-04-27T14:13:28.202Z,46.19
2023-04-27T14:15:56.375Z,46.07
2023-04-27T14:18:31.918Z,45.85
2023-04-27T14:21:01.216Z,45.84
2023-04-27T14:23:29.800Z,45.43
2023-04-27T14:25:58.078Z,45.28
2023-04-27T14:28:26.687Z,45.27
2023-04-27T14:30:54.729Z,45.07
2023-04-27T14:33:22.907Z,44.71
2023-04-27T14:35:51.175Z,44.21
2023-04-27T14:38:19.248Z,43.28
2023-04-27T14:40:47.826Z,42.81
2023-04-27T14:43:17.229Z,42.61
2023-04-27T14:45:52.908Z,42.79
2023-04-27T14:48:22.379Z,42.79
2023-04-27T14:50:50.761Z,42.80
2023-04-27T14:53:18.939Z,43.11
2023-04-27T14:55:47.105Z,43.23
2023-04-27T14:58:15.782Z,43.41
2023-04-27T15:00:43.964Z,43.87
2023-04-27T15:03:12.433Z,43.94
2023-04-27T15:05:40.816Z,43.92
2023-04-27T15:08:08.988Z,44.15
2023-04-27T15:10:37.160Z,44.24
2023-04-27T15:13:05.342Z,44.09
2023-04-27T15:15:33.401Z,44.28
2023-04-27T15:18:01.669Z,44.44
2023-04-27T15:20:29.949Z,44.31
2023-04-27T15:22:58.229Z,44.64
2023-04-27T15:25:26.395Z,44.76
2023-04-27T15:27:54.672Z,44.95
2023-04-27T15:30:22.952Z,44.97
2023-04-27T15:32:51.059Z,44.69
2023-04-27T15:35:19.320Z,44.44
2023-04-27T15:37:48.071Z,43.87
2023-04-27T15:40:16.558Z,43.23
2023-04-27T15:42:44.729Z,42.25
2023-04-27T15:45:12.908Z,41.91
2023-04-27T15:47:41.109Z,41.79
2023-04-27T15:50:09.586Z,41.55
2023-04-27T15:52:37.722Z,41.25
2023-04-27T15:55:06.201Z,41.10
2023-04-27T15:57:34.795Z,41.02
2023-04-27T16:00:07.258Z,40.37
2023-04-27T16:02:39.747Z,39.94
2023-04-27T16:05:08.925Z,39.97
2023-04-27T16:07:37.616Z,39.71
2023-04-27T16:10:07.015Z,39.47
2023-04-27T16:12:36.224Z,39.66
2023-04-27T16:15:04.991Z,39.71
2023-04-27T16:17:37.371Z,39.83
2023-04-27T16:20:09.705Z,40.12
2023-04-27T16:22:38.215Z,40.30
2023-04-27T16:25:10.825Z,40.56
2023-04-27T16:27:39.681Z,40.98
2023-04-27T16:30:08.364Z,41.23
2023-04-27T16:32:38.127Z,41.46
2023-04-27T16:35:08.066Z,41.89
2023-04-27T16:37:36.461Z,42.26
2023-04-27T16:40:07.057Z,42.68
2023-04-27T16:42:35.685Z,42.75
2023-04-27T16:45:04.462Z,42.94
2023-04-27T16:47:32.776Z,43.04
2023-04-27T16:50:01.206Z,43.12
2023-04-27T16:52:29.490Z,43.16
2023-04-27T16:54:57.669Z,43.12
2023-04-27T16:57:26.053Z,43.11
2023-04-27T16:59:54.213Z,43.05
2023-04-27T17:02:25.649Z,43.24
2023-04-27T17:04:54.635Z,43.54
2023-04-27T17:07:23.095Z,43.47
2023-04-27T17:09:51.306Z,44.09
2023-04-27T17:12:19.581Z,44.26
2023-04-27T17:14:47.646Z,44.29
2023-04-27T17:17:15.720Z,44.41
2023-04-27T17:19:43.898Z,44.52
2023-04-27T17:22:13.496Z,44.58
2023-04-27T17:24:41.692Z,44.81
2023-04-27T17:27:10.745Z,45.21
2023-04-27T17:29:38.831Z,45.59
2023-04-27T17:32:07.110Z,45.99
2023-04-27T17:34:35.995Z,46.38
2023-04-27T17:37:04.375Z,46.39
2023-04-27T17:39:33.260Z,46.85
2023-04-27T17:42:01.442Z,47.13
2023-04-27T17:44:29.609Z,47.44
2023-04-27T17:46:57.698Z,48.00
2023-04-27T17:49:25.975Z,48.85
2023-04-27T17:51:54.127Z,49.32
2023-04-27T17:54:22.314Z,50.20
2023-04-27T17:56:50.368Z,51.11
2023-04-27T17:59:18.658Z,51.78
2023-04-27T18:01:47.561Z,52.35
2023-04-27T18:04:15.852Z,52.41
2023-04-27T18:06:44.084Z,52.72
2023-04-27T18:09:12.741Z,53.05
2023-04-27T18:11:41.450Z,53.85
2023-04-27T18:14:09.532Z,54.42
2023-04-27T18:16:37.809Z,54.02
2023-04-27T18:19:06.387Z,55.24
2023-04-27T18:21:34.556Z,55.61
2023-04-27T18:24:02.722Z,55.65
2023-04-27T18:26:31.408Z,55.78
2023-04-27T18:28:59.708Z,56.36
2023-04-27T18:31:28.699Z,56.20
2023-04-27T18:33:57.049Z,57.08
2023-04-27T18:36:27.687Z,57.56
2023-04-27T18:38:56.155Z,57.56
2023-04-27T18:41:24.950Z,57.84
2023-04-27T18:43:53.317Z,58.16
2023-04-27T18:46:21.564Z,58.61
2023-04-27T18:48:49.772Z,58.87
2023-04-27T18:51:17.836Z,59.15
2023-04-27T18:53:46.006Z,59.35
2023-04-27T18:56:15.001Z,59.52
2023-04-27T18:58:43.070Z,59.93
2023-04-27T19:01:22.372Z,60.22
2023-04-27T19:03:51.114Z,60.58
2023-04-27T19:06:21.128Z,60.80
2023-04-27T19:08:49.896Z,61.10
2023-04-27T19:11:22.299Z,61.30
2023-04-27T19:13:51.052Z,61.50
2023-04-27T19:16:19.277Z,61.84
2023-04-27T19:18:47.600Z,62.01
2023-04-27T19:21:15.870Z,62.19
2023-04-27T19:23:45.791Z,62.63
2023-04-27T19:26:14.338Z,62.95
2023-04-27T19:28:42.763Z,63.33
2023-04-27T19:31:11.060Z,63.19
2023-04-27T19:33:46.787Z,63.41
2023-04-27T19:36:15.252Z,63.67
2023-04-27T19:38:43.594Z,64.13
2023-04-27T19:41:14.261Z,64.32
2023-04-27T19:43:42.641Z,64.56
2023-04-27T19:46:11.054Z,64.45
2023-04-27T19:48:39.299Z,64.72
2023-04-27T19:51:11.147Z,64.94
2023-04-27T19:53:39.417Z,64.87
2023-04-27T19:56:07.696Z,65.15
2023-04-27T19:58:36.075Z,65.31
2023-04-27T20:01:04.244Z,65.14
2023-04-27T20:03:32.544Z,65.52
2023-04-27T20:06:01.139Z,65.41
2023-04-27T20:08:29.679Z,65.86
2023-04-27T20:10:57.859Z,66.26
2023-04-27T20:13:26.136Z,66.27
2023-04-27T20:15:54.365Z,66.34
2023-04-27T20:18:22.569Z,66.36
2023-04-27T20:20:50.845Z,66.77
2023-04-27T20:23:19.022Z,66.80
2023-04-27T20:25:47.191Z,67.34
2023-04-27T20:28:15.264Z,67.10
2023-04-27T20:30:43.356Z,67.26
2023-04-27T20:33:13.385Z,67.57
2023-04-27T20:35:42.760Z,67.46
2023-04-27T20:38:10.921Z,67.62
2023-04-27T20:40:39.707Z,67.69
2023-04-27T20:43:08.190Z,68.29
2023-04-27T20:45:36.705Z,68.37
2023-04-27T20:48:08.060Z,68.50
2023-04-27T20:50:37.215Z,68.45
2023-04-27T20:53:05.793Z,68.59
2023-04-27T20:55:34.562Z,68.58
2023-04-27T20:58:02.752Z,68.68
2023-04-27T21:00:30.920Z,68.77
2023-04-27T21:02:59.117Z,69.23
2023-04-27T21:05:27.370Z,69.21
2023-04-27T21:07:55.848Z,69.36
2023-04-27T21:10:24.134Z,69.45
2023-04-27T21:12:52.300Z,69.38
2023-04-27T21:15:20.677Z,69.47
2023-04-27T21:17:48.875Z,69.77
2023-04-27T21:20:17.335Z,69.83
2023-04-27T21:22:45.392Z,69.89
2023-04-27T21:25:13.465Z,70.31
2023-04-27T21:27:41.638Z,70.41
2023-04-27T21:30:10.630Z,70.66
2023-04-27T21:32:39.726Z,70.50
2023-04-27T21:35:08.840Z,70.39
2023-04-27T21:37:37.308Z,70.71
2023-04-27T21:40:06.592Z,71.01
2023-04-27T21:42:34.667Z,71.15
2023-04-27T21:45:04.559Z,70.95
2023-04-27T21:47:32.679Z,70.89
2023-04-27T21:50:00.925Z,70.82
2023-04-27T21:52:29.302Z,71.06
2023-04-27T21:54:57.489Z,71.04
2023-04-27T21:57:25.643Z,71.41
2023-04-27T21:59:53.936Z,71.37
2023-04-27T22:02:22.681Z,71.59
2023-04-27T22:04:51.881Z,71.55
2023-04-27T22:07:20.178Z,71.52
2023-04-27T22:09:48.243Z,71.70
2023-04-27T22:12:16.419Z,71.66
2023-04-27T22:14:44.587Z,71.67
2023-04-27T22:17:12.763Z,71.94
2023-04-27T22:19:41.653Z,71.71
2023-04-27T22:22:10.545Z,72.02
2023-04-27T22:24:38.711Z,72.08
2023-04-27T22:27:06.795Z,72.36
2023-04-27T22:29:35.056Z,72.47
2023-04-27T22:32:03.363Z,72.53
2023-04-27T22:34:32.326Z,72.84
2023-04-27T22:37:00.509Z,72.93
2023-04-27T22:39:28.770Z,73.14
2023-04-27T22:41:56.951Z,73.19
2023-04-27T22:44:25.113Z,73.18
2023-04-27T22:46:53.330Z,73.34
2023-04-27T22:49:21.562Z,73.37
2023-04-27T22:51:50.450Z,73.39
2023-04-27T22:54:18.811Z,73.48
2023-04-27T22:56:47.003Z,73.31
2023-04-27T22:59:15.274Z,73.39
2023-04-27T23:01:43.342Z,73.62
2023-04-27T23:04:11.567Z,73.60
2023-04-27T23:06:39.891Z,73.59
2023-04-27T23:09:08.378Z,73.72
2023-04-27T23:11:36.952Z,73.74
2023-04-27T23:14:05.129Z,73.85
2023-04-27T23:16:33.311Z,74.03
2023-04-27T23:19:01.878Z,73.98
2023-04-27T23:21:30.049Z,74.08
2023-04-27T23:23:58.222Z,74.07
2023-04-27T23:26:26.394Z,74.10
2023-04-27T23:28:54.703Z,74.24
2023-04-27T23:31:23.930Z,74.28
2023-04-27T23:33:52.448Z,74.36
2023-04-27T23:36:20.518Z,74.39
2023-04-27T23:38:48.694Z,74.64
2023-04-27T23:41:16.765Z,74.68
2023-04-27T23:43:45.138Z,74.69
2023-04-27T23:46:13.457Z,74.94
2023-04-27T23:48:42.720Z,74.99
2023-04-27T23:51:10.782Z,75.10
2023-04-27T23:53:38.951Z,75.07
2023-04-27T23:56:19.022Z,75.22
2023-04-27T23:58:47.178Z,75.34
